logo dgac
Domingo 16 de Diciembre del 2018
Buscar por aerodromo o helipuerto
Ingrese nombre de aeródromo, localidad o designador OACI:
METAR del 16-12-2018 a las 23:00 UTC
METAR SCRD 162300Z 19010KT CAVOK 21/08 Q1014
Viento: dirección 190 grados, velocidad 10 nudos
Visibilidad: 10 km o más,
    sin nubes bajo los 5.000 pies o bajo del MSA (Mínimo de Seguridad del Aeródromo),
    sin cumulonimbus, y sin fenómenos de tiempo significativo en el aeródromo o alrededores
Temperatura: 21 °C
Rocío: 8 °C
Humedad_relativa: 43%
Presión: 1014 hPa
METAR del 16-12-2018 a las 22:00 UTC
METAR SCRD 162200Z 18006KT CAVOK 23/07 Q1014
Viento: dirección 180 grados, velocidad 6 nudos
Visibilidad: 10 km o más,
    sin nubes bajo los 5.000 pies o bajo del MSA (Mínimo de Seguridad del Aeródromo),
    sin cumulonimbus, y sin fenómenos de tiempo significativo en el aeródromo o alrededores
Temperatura: 23 °C
Rocío: 7 °C
Humedad_relativa: 36%
Presión: 1014 hPa
METAR del 16-12-2018 a las 21:00 UTC
METAR SCRD 162100Z 20012KT CAVOK 25/07 Q1014
Viento: dirección 200 grados, velocidad 12 nudos
Visibilidad: 10 km o más,
    sin nubes bajo los 5.000 pies o bajo del MSA (Mínimo de Seguridad del Aeródromo),
    sin cumulonimbus, y sin fenómenos de tiempo significativo en el aeródromo o alrededores
Temperatura: 25 °C
Rocío: 7 °C
Humedad_relativa: 32%
Presión: 1014 hPa
METAR del 16-12-2018 a las 19:00 UTC
METAR SCRD 161900Z 18011KT CAVOK 27/09 Q1015
Viento: dirección 180 grados, velocidad 11 nudos
Visibilidad: 10 km o más,
    sin nubes bajo los 5.000 pies o bajo del MSA (Mínimo de Seguridad del Aeródromo),
    sin cumulonimbus, y sin fenómenos de tiempo significativo en el aeródromo o alrededores
Temperatura: 27 °C
Rocío: 9 °C
Humedad_relativa: 32%
Presión: 1015 hPa
METAR del 16-12-2018 a las 19:00 UTC
METAR SCRD 161900Z 18011KT CAVOK 27/09 Q1015
Viento: dirección 180 grados, velocidad 11 nudos
Visibilidad: 10 km o más,
    sin nubes bajo los 5.000 pies o bajo del MSA (Mínimo de Seguridad del Aeródromo),
    sin cumulonimbus, y sin fenómenos de tiempo significativo en el aeródromo o alrededores
Temperatura: 27 °C
Rocío: 9 °C
Humedad_relativa: 32%
Presión: 1015 hPa
METAR del 16-12-2018 a las 18:00 UTC
METAR SCRD 161800Z 36007KT CAVOK 24/11 Q1016
Viento: dirección 360 grados, velocidad 7 nudos
Visibilidad: 10 km o más,
    sin nubes bajo los 5.000 pies o bajo del MSA (Mínimo de Seguridad del Aeródromo),
    sin cumulonimbus, y sin fenómenos de tiempo significativo en el aeródromo o alrededores
Temperatura: 24 °C
Rocío: 11 °C
Humedad_relativa: 44%
Presión: 1016 hPa
METAR del 16-12-2018 a las 18:00 UTC
METAR SCRD 161800Z 36007KT CAVOK 24/11 Q1016
Viento: dirección 360 grados, velocidad 7 nudos
Visibilidad: 10 km o más,
    sin nubes bajo los 5.000 pies o bajo del MSA (Mínimo de Seguridad del Aeródromo),
    sin cumulonimbus, y sin fenómenos de tiempo significativo en el aeródromo o alrededores
Temperatura: 24 °C
Rocío: 11 °C
Humedad_relativa: 44%
Presión: 1016 hPa
METAR del 16-12-2018 a las 17:00 UTC
METAR SCRD 161700Z 36006KT CAVOK 21/10 Q1016
Viento: dirección 360 grados, velocidad 6 nudos
Visibilidad: 10 km o más,
    sin nubes bajo los 5.000 pies o bajo del MSA (Mínimo de Seguridad del Aeródromo),
    sin cumulonimbus, y sin fenómenos de tiempo significativo en el aeródromo o alrededores
Temperatura: 21 °C
Rocío: 10 °C
Humedad_relativa: 49%
Presión: 1016 hPa
METAR del 16-12-2018 a las 17:00 UTC
METAR SCRD 161700Z 36006KT CAVOK 21/10 Q1016
Viento: dirección 360 grados, velocidad 6 nudos
Visibilidad: 10 km o más,
    sin nubes bajo los 5.000 pies o bajo del MSA (Mínimo de Seguridad del Aeródromo),
    sin cumulonimbus, y sin fenómenos de tiempo significativo en el aeródromo o alrededores
Temperatura: 21 °C
Rocío: 10 °C
Humedad_relativa: 49%
Presión: 1016 hPa
METAR del 16-12-2018 a las 16:00 UTC
METAR SCRD 161600Z 33006KT CAVOK 20/10 Q1016
Viento: dirección 330 grados, velocidad 6 nudos
Visibilidad: 10 km o más,
    sin nubes bajo los 5.000 pies o bajo del MSA (Mínimo de Seguridad del Aeródromo),
    sin cumulonimbus, y sin fenómenos de tiempo significativo en el aeródromo o alrededores
Temperatura: 20 °C
Rocío: 10 °C
Humedad_relativa: 53%
Presión: 1016 hPa